Time;durP1;ratioP1;P1;durP2;ratioP2;P2;SDS_P1;SDS_P2;PMS_P1;PMS_P2;Temp;Humidity;BMP_temperature;BMP_pressure;BME280_temperature;BME280_humidity;BME280_pressure;Samples;Min_cycle;Max_cycle;Signal;HPM_P1;HPM_P2
2022/09/27 00:02:14;;;;;;;0.00;0.00;;;10.90;99.90;;;;;;5036474;28;20174;-64
2022/09/27 00:04:40;;;;;;;0.00;0.00;;;10.90;99.90;;;;;;5035381;28;20201;-64
2022/09/27 00:07:06;;;;;;;0.00;0.00;;;10.80;99.90;;;;;;5032142;28;20194;-64
2022/09/27 00:09:32;;;;;;;0.00;0.00;;;10.80;99.90;;;;;;5043097;28;20629;-64
2022/09/27 00:11:57;;;;;;;0.00;0.00;;;10.80;99.90;;;;;;5046106;28;20196;-64
2022/09/27 00:14:23;;;;;;;0.00;0.00;;;10.90;99.90;;;;;;5049121;28;20178;-64
2022/09/27 00:16:48;;;;;;;0.00;0.00;;;10.90;99.90;;;;;;5035594;28;20718;-64
2022/09/27 00:19:17;;;;;;;0.00;0.00;;;10.90;99.90;;;;;;5046586;28;20256;-64
2022/09/27 00:21:44;;;;;;;0.22;0.10;;;10.90;99.90;;;;;;5050599;28;20177;-64
2022/09/27 00:24:14;;;;;;;0.00;0.00;;;10.90;99.90;;;;;;5043961;28;20182;-63
2022/09/27 00:26:40;;;;;;;0.00;0.00;;;10.90;99.90;;;;;;5043290;28;20186;-64
2022/09/27 00:29:06;;;;;;;0.00;0.00;;;10.90;99.90;;;;;;5046580;28;20287;-65
2022/09/27 00:31:31;;;;;;;0.00;0.00;;;10.90;99.90;;;;;;5044317;28;20213;-64
2022/09/27 00:34:00;;;;;;;0.00;0.00;;;10.90;99.90;;;;;;5051809;28;20532;-65
2022/09/27 00:36:26;;;;;;;0.00;0.00;;;10.90;99.90;;;;;;5042718;28;20178;-64
2022/09/27 00:38:53;;;;;;;0.00;0.00;;;10.80;99.90;;;;;;5040442;28;20202;-64
2022/09/27 00:41:27;;;;;;;0.00;0.00;;;10.80;99.90;;;;;;5036911;28;20252;-64
2022/09/27 00:43:55;;;;;;;0.00;0.00;;;10.80;99.90;;;;;;5041888;28;20170;-64
2022/09/27 00:46:29;;;;;;;0.00;0.00;;;10.70;99.90;;;;;;5046924;28;20182;-64
2022/09/27 00:49:23;;;;;;;0.00;0.00;;;10.70;99.90;;;;;;5042330;28;20753;-64
2022/09/27 00:51:53;;;;;;;0.00;0.00;;;10.70;99.90;;;;;;5042575;28;20210;-64
2022/09/27 00:54:21;;;;;;;0.00;0.00;;;10.70;99.90;;;;;;5040738;28;20169;-64
2022/09/27 00:56:48;;;;;;;0.00;0.00;;;10.70;99.90;;;;;;5033240;28;20214;-64
2022/09/27 00:59:23;;;;;;;0.00;0.00;;;10.70;99.90;;;;;;5034933;28;20265;-63
2022/09/27 01:01:49;;;;;;;0.00;0.00;;;10.70;99.90;;;;;;5041684;28;20188;-63
2022/09/27 01:04:21;;;;;;;0.00;0.00;;;10.70;99.90;;;;;;5045536;28;20693;-64
2022/09/27 01:06:47;;;;;;;0.00;0.00;;;10.70;99.90;;;;;;5034456;28;20190;-64
2022/09/27 01:09:13;;;;;;;0.30;0.30;;;10.70;99.90;;;;;;5048779;28;20181;-63
2022/09/27 01:12:00;;;;;;;0.00;0.00;;;10.60;99.90;;;;;;5042314;28;20225;-63
2022/09/27 01:14:46;;;;;;;0.00;0.00;;;10.70;99.90;;;;;;5047104;28;20539;-64
2022/09/27 01:17:47;;;;;;;0.00;0.00;;;10.70;99.90;;;;;;5039357;28;20228;-63
2022/09/27 01:20:23;;;;;;;0.00;0.00;;;10.60;99.90;;;;;;5044290;28;20640;-63
2022/09/27 01:23:13;;;;;;;0.17;0.17;;;10.70;99.90;;;;;;5042177;28;20649;-63
2022/09/27 01:26:09;;;;;;;1.35;0.38;;;10.60;99.90;;;;;;5039318;28;20231;-63
2022/09/27 01:29:10;;;;;;;0.00;0.00;;;10.60;99.90;;;;;;5041190;28;20590;-64
2022/09/27 01:32:05;;;;;;;0.00;0.00;;;10.60;99.90;;;;;;5034538;28;20222;-63
2022/09/27 01:35:01;;;;;;;0.03;0.00;;;10.60;99.90;;;;;;5024288;28;20178;-64
2022/09/27 01:37:26;;;;;;;0.00;0.00;;;10.60;99.90;;;;;;5042772;28;20193;-64
2022/09/27 01:40:19;;;;;;;0.00;0.00;;;10.50;99.90;;;;;;5045675;28;20263;-64
2022/09/27 01:42:48;;;;;;;0.00;0.00;;;10.60;99.90;;;;;;5042078;28;20225;-64
2022/09/27 01:45:28;;;;;;;0.03;0.03;;;10.50;99.90;;;;;;5033982;28;20189;-64
2022/09/27 01:48:06;;;;;;;0.00;0.00;;;10.60;99.90;;;;;;5040264;28;20174;-64
2022/09/27 01:50:54;;;;;;;0.00;0.00;;;10.60;99.90;;;;;;5035413;28;20260;-64
2022/09/27 01:53:27;;;;;;;0.00;0.00;;;10.50;99.90;;;;;;5045174;28;20189;-64
2022/09/27 01:55:55;;;;;;;0.00;0.00;;;10.50;99.90;;;;;;5052188;28;20173;-64
2022/09/27 01:58:36;;;;;;;0.00;0.00;;;10.50;99.90;;;;;;5040043;28;20182;-64
2022/09/27 02:01:03;;;;;;;0.00;0.00;;;10.50;99.90;;;;;;5035705;28;20560;-64
2022/09/27 02:03:39;;;;;;;0.05;0.05;;;10.50;99.90;;;;;;5042809;28;20585;-63
2022/09/27 02:06:21;;;;;;;0.00;0.00;;;10.50;99.90;;;;;;5037504;28;20189;-64
2022/09/27 02:09:06;;;;;;;0.00;0.00;;;10.50;99.90;;;;;;5038277;28;20209;-63
2022/09/27 02:11:33;;;;;;;0.00;0.00;;;10.40;99.90;;;;;;5049359;28;20209;-63
2022/09/27 02:14:17;;;;;;;0.00;0.00;;;10.40;99.90;;;;;;5040385;28;20176;-64
2022/09/27 02:16:59;;;;;;;0.00;0.00;;;10.40;99.90;;;;;;5037928;28;20228;-63
2022/09/27 02:19:42;;;;;;;0.00;0.00;;;10.30;99.90;;;;;;5043092;28;20193;-64
2022/09/27 02:22:43;;;;;;;0.03;0.03;;;10.30;99.90;;;;;;5043481;28;20181;-63
2022/09/27 02:25:08;;;;;;;0.00;0.00;;;10.30;99.90;;;;;;5013386;28;20178;-65
2022/09/27 02:27:59;;;;;;;0.00;0.00;;;10.30;99.90;;;;;;5038048;28;20204;-64
2022/09/27 02:30:25;;;;;;;0.00;0.00;;;10.20;99.90;;;;;;5049062;28;20217;-63
2022/09/27 02:32:51;;;;;;;0.00;0.00;;;10.20;99.90;;;;;;5050541;28;20189;-64
2022/09/27 02:35:33;;;;;;;0.05;0.05;;;10.20;99.90;;;;;;5032914;28;20175;-63
2022/09/27 02:37:59;;;;;;;0.00;0.00;;;10.20;99.90;;;;;;5039953;28;20193;-64
2022/09/27 02:40:30;;;;;;;0.00;0.00;;;10.20;99.90;;;;;;5044689;28;20189;-63
2022/09/27 02:42:56;;;;;;;0.00;0.00;;;10.20;99.90;;;;;;5045976;28;20186;-63
2022/09/27 02:45:23;;;;;;;0.00;0.00;;;10.10;99.90;;;;;;5050798;28;20185;-63
2022/09/27 02:48:03;;;;;;;0.00;0.00;;;10.10;99.90;;;;;;5047366;28;20189;-64
2022/09/27 02:50:54;;;;;;;0.00;0.00;;;10.10;99.90;;;;;;5046210;28;20213;-63
2022/09/27 02:53:43;;;;;;;0.00;0.00;;;10.10;99.90;;;;;;5041090;28;20231;-63
2022/09/27 02:56:53;;;;;;;0.00;0.00;;;10.10;99.90;;;;;;5039499;28;20178;-63
2022/09/27 02:59:34;;;;;;;0.00;0.00;;;10.10;99.90;;;;;;5040579;28;20190;-64
2022/09/27 03:02:06;;;;;;;0.00;0.00;;;10.10;99.90;;;;;;5018242;28;20224;-62
2022/09/27 03:04:38;;;;;;;0.00;0.00;;;10.10;99.90;;;;;;5033194;28;20194;-63
2022/09/27 03:07:04;;;;;;;0.00;0.00;;;10.10;99.90;;;;;;5044397;28;20181;-63
2022/09/27 03:09:40;;;;;;;0.00;0.00;;;10.10;99.90;;;;;;5041990;28;20189;-63
2022/09/27 03:12:06;;;;;;;0.10;0.10;;;10.10;99.90;;;;;;5048553;28;20177;-63
2022/09/27 03:14:31;;;;;;;0.00;0.00;;;10.10;99.90;;;;;;5040784;28;20244;-63
2022/09/27 03:16:57;;;;;;;0.00;0.00;;;10.10;99.90;;;;;;5039553;28;20178;-63
2022/09/27 03:19:23;;;;;;;0.00;0.00;;;10.10;99.90;;;;;;5040134;28;20648;-63
2022/09/27 03:21:49;;;;;;;0.43;0.43;;;10.10;99.90;;;;;;5031782;28;20185;-63
2022/09/27 03:24:15;;;;;;;0.00;0.00;;;10.10;99.90;;;;;;5042318;28;20593;-63
2022/09/27 03:26:40;;;;;;;0.00;0.00;;;10.10;99.90;;;;;;5050793;28;20308;-63
2022/09/27 03:29:06;;;;;;;0.00;0.00;;;10.10;99.90;;;;;;5048397;28;20264;-63
2022/09/27 03:31:31;;;;;;;0.00;0.00;;;10.10;99.90;;;;;;5037287;28;20294;-63
2022/09/27 03:33:57;;;;;;;0.00;0.00;;;10.10;99.90;;;;;;5045228;28;20178;-63
2022/09/27 03:36:22;;;;;;;0.00;0.00;;;10.10;99.90;;;;;;5033562;28;20655;-64
2022/09/27 03:38:48;;;;;;;0.10;0.10;;;10.10;99.90;;;;;;5038951;28;20173;-63
2022/09/27 03:41:13;;;;;;;0.03;0.03;;;10.00;99.90;;;;;;5037140;28;20190;-63
2022/09/27 03:43:39;;;;;;;0.03;0.03;;;10.00;99.90;;;;;;5032895;28;20764;-63
2022/09/27 03:46:04;;;;;;;0.00;0.00;;;10.00;99.90;;;;;;5041439;28;20206;-63
2022/09/27 03:48:30;;;;;;;0.10;0.10;;;10.00;99.90;;;;;;5033331;28;20188;-63
2022/09/27 03:50:56;;;;;;;0.00;0.00;;;10.00;99.90;;;;;;5032868;28;20210;-64
2022/09/27 03:53:21;;;;;;;0.05;0.05;;;10.00;99.90;;;;;;5034962;28;20178;-65
2022/09/27 03:55:47;;;;;;;0.00;0.00;;;10.00;99.90;;;;;;5038450;28;20543;-64
2022/09/27 03:58:13;;;;;;;0.08;0.08;;;10.00;99.90;;;;;;5048969;28;20629;-63
2022/09/27 04:00:40;;;;;;;0.40;0.30;;;10.00;99.90;;;;;;5037176;28;20204;-61
2022/09/27 04:03:06;;;;;;;0.13;0.13;;;10.80;99.90;;;;;;5033102;28;20226;-62
2022/09/27 04:05:31;;;;;;;0.00;0.00;;;10.80;99.90;;;;;;5041442;28;20193;-62
2022/09/27 04:07:57;;;;;;;0.00;0.00;;;10.60;99.90;;;;;;5044284;28;20174;-64
2022/09/27 04:10:23;;;;;;;0.00;0.00;;;10.40;99.90;;;;;;5048658;28;20205;-65
2022/09/27 04:12:49;;;;;;;0.00;0.00;;;10.30;99.90;;;;;;5054404;28;20335;-67
2022/09/27 04:15:15;;;;;;;0.10;0.10;;;10.20;99.90;;;;;;5042606;28;20192;-64
2022/09/27 04:17:41;;;;;;;0.00;0.00;;;10.20;99.90;;;;;;5042703;28;20196;-65
2022/09/27 04:20:08;;;;;;;0.00;0.00;;;10.10;99.90;;;;;;5054775;28;20177;-63
2022/09/27 04:22:33;;;;;;;0.00;0.00;;;10.10;99.90;;;;;;5052995;28;20244;-67
2022/09/27 04:24:59;;;;;;;0.00;0.00;;;10.00;99.90;;;;;;5050603;28;20177;-63
2022/09/27 04:27:25;;;;;;;0.00;0.00;;;10.00;99.90;;;;;;5046259;28;20183;-65
2022/09/27 04:29:50;;;;;;;0.10;0.10;;;10.00;99.90;;;;;;5052693;28;20232;-66
2022/09/27 04:32:16;;;;;;;0.00;0.00;;;9.90;99.90;;;;;;5038581;28;20268;-64
2022/09/27 04:37:26;;;;;;;0.00;0.00;;;9.90;99.90;;;;;;5051436;28;20188;-67
2022/09/27 04:39:51;;;;;;;0.00;0.00;;;9.90;99.90;;;;;;5048888;28;20178;-67
2022/09/27 04:42:17;;;;;;;0.00;0.00;;;9.90;99.90;;;;;;5034610;28;20538;-67
2022/09/27 04:44:43;;;;;;;0.00;0.00;;;9.90;99.90;;;;;;5034772;28;20265;-67
2022/09/27 04:47:09;;;;;;;0.10;0.10;;;9.90;99.90;;;;;;5034651;28;20269;-67
2022/09/27 04:49:34;;;;;;;0.10;0.10;;;9.90;99.90;;;;;;5034613;28;20552;-67
2022/09/27 04:52:01;;;;;;;0.00;0.00;;;9.90;99.90;;;;;;5034677;28;20186;-68
2022/09/27 04:54:26;;;;;;;0.00;0.00;;;9.80;99.90;;;;;;5034612;28;20209;-67
2022/09/27 04:56:52;;;;;;;0.00;0.00;;;9.90;99.90;;;;;;5034525;28;20213;-67
2022/09/27 04:59:17;;;;;;;0.15;0.15;;;9.80;99.90;;;;;;5034282;28;20217;-67
2022/09/27 05:01:45;;;;;;;0.00;0.00;;;9.90;99.90;;;;;;5034558;28;20174;-67
2022/09/27 05:04:11;;;;;;;0.00;0.00;;;9.80;99.90;;;;;;5034168;28;20226;-66
2022/09/27 05:06:37;;;;;;;0.00;0.00;;;9.80;99.90;;;;;;5034189;28;20185;-66
2022/09/27 05:09:02;;;;;;;0.00;0.00;;;9.80;99.90;;;;;;5034314;28;20649;-66
2022/09/27 05:11:28;;;;;;;0.00;0.00;;;9.80;99.90;;;;;;5034129;28;20214;-67
2022/09/27 05:13:54;;;;;;;0.10;0.10;;;9.80;99.90;;;;;;5034299;28;20258;-67
2022/09/27 05:16:19;;;;;;;0.00;0.00;;;9.80;99.90;;;;;;5034058;28;20516;-67
2022/09/27 05:18:45;;;;;;;0.00;0.00;;;9.80;99.90;;;;;;5033638;28;20178;-67
2022/09/27 05:21:11;;;;;;;0.00;0.00;;;9.80;99.90;;;;;;5033784;28;20271;-66
2022/09/27 05:23:37;;;;;;;0.00;0.00;;;9.70;99.90;;;;;;5034091;28;20174;-67
2022/09/27 05:26:05;;;;;;;0.00;0.00;;;9.70;99.90;;;;;;5034133;28;20189;-68
2022/09/27 05:28:33;;;;;;;0.45;0.20;;;9.70;99.90;;;;;;5033990;28;20220;-67
2022/09/27 05:31:00;;;;;;;0.00;0.00;;;9.70;99.90;;;;;;5033837;28;20245;-67
2022/09/27 05:33:25;;;;;;;0.00;0.00;;;9.70;99.90;;;;;;5032750;28;20182;-67
2022/09/27 05:35:53;;;;;;;0.00;0.00;;;9.70;99.90;;;;;;5033969;28;20185;-67
2022/09/27 05:38:18;;;;;;;0.00;0.00;;;9.70;99.90;;;;;;5033677;28;20166;-67
2022/09/27 05:40:46;;;;;;;0.17;0.17;;;9.70;99.90;;;;;;5033696;28;20178;-67
2022/09/27 05:43:12;;;;;;;0.00;0.00;;;9.70;99.90;;;;;;5033630;28;20707;-67
2022/09/27 05:45:37;;;;;;;0.10;0.10;;;9.70;99.90;;;;;;5033681;28;20309;-67
2022/09/27 05:48:04;;;;;;;0.00;0.00;;;9.60;99.90;;;;;;5033617;28;20534;-67
2022/09/27 05:50:30;;;;;;;0.00;0.00;;;9.60;99.90;;;;;;5033419;28;20210;-67
2022/09/27 05:52:56;;;;;;;0.00;0.00;;;9.60;99.90;;;;;;5033463;28;20652;-67
2022/09/27 05:55:22;;;;;;;0.05;0.05;;;9.60;99.90;;;;;;5033517;28;20170;-67
2022/09/27 05:57:58;;;;;;;0.00;0.00;;;9.60;99.90;;;;;;5033463;28;20262;-67
2022/09/27 06:00:25;;;;;;;0.03;0.03;;;9.60;99.90;;;;;;5033389;28;20186;-67
2022/09/27 06:03:17;;;;;;;0.05;0.05;;;9.60;99.90;;;;;;5033270;28;20232;-67
2022/09/27 06:05:42;;;;;;;0.05;0.05;;;9.60;99.90;;;;;;5033032;28;20233;-67
2022/09/27 06:08:10;;;;;;;0.00;0.00;;;9.60;99.90;;;;;;5033287;28;20649;-67
2022/09/27 06:10:37;;;;;;;0.00;0.00;;;9.60;99.90;;;;;;5033034;28;20222;-67
2022/09/27 06:13:05;;;;;;;0.00;0.00;;;9.60;99.90;;;;;;5033126;28;20178;-67
2022/09/27 06:15:33;;;;;;;0.00;0.00;;;9.70;99.90;;;;;;5033057;28;20516;-67
2022/09/27 06:18:04;;;;;;;0.00;0.00;;;9.70;99.90;;;;;;5032942;28;20181;-67
2022/09/27 06:20:30;;;;;;;0.00;0.00;;;9.70;99.90;;;;;;5032906;28;20186;-67
2022/09/27 06:23:22;;;;;;;0.15;0.15;;;9.70;99.90;;;;;;5032911;28;20244;-67
2022/09/27 06:25:49;;;;;;;0.00;0.00;;;9.70;99.90;;;;;;5032832;28;20190;-67
2022/09/27 06:28:15;;;;;;;0.00;0.00;;;9.80;99.90;;;;;;5032789;28;20190;-67
2022/09/27 06:30:43;;;;;;;0.00;0.00;;;9.80;99.90;;;;;;5032536;28;20657;-67
2022/09/27 06:33:12;;;;;;;0.00;0.00;;;9.80;99.90;;;;;;5032798;28;20186;-67
2022/09/27 06:35:38;;;;;;;0.00;0.00;;;9.80;99.90;;;;;;5032611;28;20225;-68
2022/09/27 06:38:05;;;;;;;0.00;0.00;;;9.80;99.90;;;;;;5032731;28;20805;-67
2022/09/27 06:40:31;;;;;;;0.10;0.10;;;9.70;99.90;;;;;;5032561;28;20265;-67
2022/09/27 06:43:09;;;;;;;0.00;0.00;;;9.70;99.90;;;;;;5032588;28;20733;-67
2022/09/27 06:45:35;;;;;;;0.10;0.10;;;9.70;99.90;;;;;;5032905;28;20252;-68
2022/09/27 06:48:02;;;;;;;0.00;0.00;;;9.80;99.90;;;;;;5032526;28;20179;-67
2022/09/27 06:50:29;;;;;;;0.00;0.00;;;9.80;99.90;;;;;;5032300;28;20213;-68
2022/09/27 06:52:55;;;;;;;0.00;0.00;;;9.80;99.90;;;;;;5032335;28;20189;-67
2022/09/27 06:55:20;;;;;;;0.10;0.10;;;9.90;99.90;;;;;;5032353;28;20182;-67
2022/09/27 07:00:30;;;;;;;0.00;0.00;;;10.00;99.90;;;;;;5032717;28;20193;-67
2022/09/27 07:02:59;;;;;;;0.00;0.00;;;10.00;99.90;;;;;;5032203;28;20218;-68
2022/09/27 07:05:29;;;;;;;0.08;0.08;;;9.90;99.90;;;;;;5032180;28;20186;-67
2022/09/27 07:07:58;;;;;;;0.20;0.10;;;9.90;99.90;;;;;;5032046;28;20186;-67
2022/09/27 07:10:32;;;;;;;0.10;0.10;;;9.80;99.90;;;;;;5032043;28;20204;-67
2022/09/27 07:13:06;;;;;;;0.00;0.00;;;9.90;99.90;;;;;;5032129;28;20186;-67
2022/09/27 07:15:35;;;;;;;0.00;0.00;;;9.80;99.90;;;;;;5031942;28;20519;-67
2022/09/27 07:18:00;;;;;;;0.00;0.00;;;9.80;99.90;;;;;;5032180;28;20186;-67
2022/09/27 07:20:27;;;;;;;0.00;0.00;;;9.80;99.90;;;;;;5031997;28;20276;-67
2022/09/27 07:22:52;;;;;;;0.00;0.00;;;9.80;99.90;;;;;;5030879;28;20575;-67
2022/09/27 07:25:18;;;;;;;0.00;0.00;;;9.80;99.90;;;;;;5031986;28;20204;-67
2022/09/27 07:27:44;;;;;;;0.00;0.00;;;9.80;99.90;;;;;;5032262;28;20174;-67
2022/09/27 07:30:10;;;;;;;0.00;0.00;;;9.80;99.90;;;;;;5032120;28;20194;-67
2022/09/27 07:32:36;;;;;;;0.00;0.00;;;9.80;99.90;;;;;;5032075;28;20236;-67
2022/09/27 07:35:07;;;;;;;0.00;0.00;;;9.80;99.90;;;;;;5032205;28;20178;-67
2022/09/27 07:37:36;;;;;;;0.00;0.00;;;9.90;99.90;;;;;;5031935;28;20185;-67
2022/09/27 07:40:08;;;;;;;0.00;0.00;;;9.90;99.90;;;;;;5031985;28;20174;-68
2022/09/27 07:42:40;;;;;;;0.00;0.00;;;10.00;99.90;;;;;;5032875;28;20178;-67
2022/09/27 07:45:07;;;;;;;0.20;0.20;;;10.10;99.90;;;;;;5036129;28;20260;-68
2022/09/27 07:47:33;;;;;;;0.00;0.00;;;10.30;99.90;;;;;;5035983;28;20181;-68
2022/09/27 07:49:58;;;;;;;0.00;0.00;;;10.40;99.90;;;;;;5035791;28;20692;-68
2022/09/27 07:52:24;;;;;;;0.00;0.00;;;10.40;99.90;;;;;;5035907;28;20270;-68
2022/09/27 07:54:50;;;;;;;0.00;0.00;;;10.50;99.90;;;;;;5036244;28;20205;-68
2022/09/27 07:57:16;;;;;;;0.00;0.00;;;10.40;99.90;;;;;;5035678;28;20536;-68
2022/09/27 07:59:42;;;;;;;0.00;0.00;;;10.30;99.90;;;;;;5035960;28;20178;-68
2022/09/27 08:02:17;;;;;;;0.00;0.00;;;10.30;99.90;;;;;;5035686;28;20531;-67
2022/09/27 08:04:42;;;;;;;0.00;0.00;;;10.30;99.90;;;;;;5035825;28;20267;-68
2022/09/27 08:07:09;;;;;;;0.00;0.00;;;10.30;99.90;;;;;;5035661;28;20653;-67
2022/09/27 08:09:35;;;;;;;0.22;0.10;;;10.40;99.90;;;;;;5035505;28;20196;-68
2022/09/27 08:12:02;;;;;;;0.00;0.00;;;10.50;99.90;;;;;;5035576;28;20190;-68
2022/09/27 08:14:28;;;;;;;0.00;0.00;;;10.90;99.90;;;;;;5035415;28;20186;-68
2022/09/27 08:16:54;;;;;;;0.00;0.00;;;11.40;99.90;;;;;;5035418;28;20205;-68
2022/09/27 08:19:19;;;;;;;0.00;0.00;;;11.80;99.90;;;;;;5035325;28;20181;-68
2022/09/27 08:21:46;;;;;;;0.00;0.00;;;12.10;99.90;;;;;;5035331;28;20178;-68
2022/09/27 08:24:12;;;;;;;0.00;0.00;;;12.40;99.90;;;;;;5035264;28;20265;-68
2022/09/27 08:26:38;;;;;;;0.00;0.00;;;12.80;99.90;;;;;;5035227;28;20265;-68
2022/09/27 08:29:04;;;;;;;0.00;0.00;;;13.00;99.90;;;;;;5035252;28;20178;-69
2022/09/27 08:31:29;;;;;;;0.00;0.00;;;12.80;99.90;;;;;;5035015;28;20223;-69
2022/09/27 08:33:55;;;;;;;0.00;0.00;;;13.10;99.90;;;;;;5035061;28;20252;-68
2022/09/27 08:36:21;;;;;;;0.00;0.00;;;13.20;99.90;;;;;;5034955;28;20189;-69
2022/09/27 08:38:48;;;;;;;0.00;0.00;;;13.00;99.90;;;;;;5035038;28;20178;-68
2022/09/27 08:41:28;;;;;;;0.10;0.10;;;12.90;99.90;;;;;;5034800;28;20190;-69
2022/09/27 08:44:31;;;;;;;0.00;0.00;;;13.00;99.90;;;;;;5034978;28;20174;-69
2022/09/27 08:47:15;;;;;;;0.00;0.00;;;13.10;99.90;;;;;;5034602;28;20649;-68
2022/09/27 08:50:08;;;;;;;0.00;0.00;;;13.50;99.90;;;;;;5034768;28;20174;-68
2022/09/27 08:52:47;;;;;;;0.00;0.00;;;13.80;99.90;;;;;;5034323;28;20703;-67
2022/09/27 08:55:36;;;;;;;0.00;0.00;;;13.70;99.90;;;;;;5033390;28;20557;-67
2022/09/27 08:58:08;;;;;;;0.00;0.00;;;13.40;99.90;;;;;;5034842;28;20186;-68
2022/09/27 09:00:34;;;;;;;0.00;0.00;;;13.10;99.90;;;;;;5034545;28;20178;-67
2022/09/27 09:03:01;;;;;;;0.00;0.00;;;12.90;99.90;;;;;;5034365;28;20689;-67
2022/09/27 09:05:33;;;;;;;0.00;0.00;;;12.70;99.90;;;;;;5033178;28;20186;-67
2022/09/27 09:08:22;;;;;;;0.10;0.10;;;12.50;99.90;;;;;;5034417;28;20182;-67
2022/09/27 09:13:59;;;;;;;0.00;0.00;;;12.40;99.90;;;;;;5034751;28;20185;-68
2022/09/27 09:16:37;;;;;;;0.00;0.00;;;12.40;99.90;;;;;;5033127;28;20177;-67
2022/09/27 09:19:10;;;;;;;0.00;0.00;;;12.40;99.90;;;;;;5034668;28;20178;-67
2022/09/27 09:22:11;;;;;;;0.00;0.00;;;12.50;99.90;;;;;;5034708;28;20709;-68
2022/09/27 09:24:39;;;;;;;0.00;0.00;;;12.60;99.90;;;;;;5033025;28;20182;-68
2022/09/27 09:27:14;;;;;;;0.00;0.00;;;12.60;99.90;;;;;;5034353;28;20316;-68
2022/09/27 09:30:19;;;;;;;0.00;0.00;;;12.40;99.90;;;;;;5034094;28;20224;-67
2022/09/27 09:33:22;;;;;;;0.00;0.00;;;12.30;99.90;;;;;;5032621;28;20277;-67
2022/09/27 09:36:03;;;;;;;0.10;0.10;;;12.10;99.90;;;;;;5034076;28;20178;-66
2022/09/27 09:38:46;;;;;;;0.00;0.00;;;11.80;99.90;;;;;;5033937;28;20205;-66
2022/09/27 09:41:15;;;;;;;0.00;0.00;;;11.60;99.90;;;;;;5033741;28;20190;-67
2022/09/27 09:43:49;;;;;;;0.00;0.00;;;11.40;99.90;;;;;;5033923;28;20174;-67
2022/09/27 09:46:39;;;;;;;0.08;0.00;;;11.30;99.90;;;;;;5033679;28;20178;-67
2022/09/27 09:49:19;;;;;;;0.00;0.00;;;11.20;99.90;;;;;;5033941;28;20232;-67
2022/09/27 09:51:54;;;;;;;0.00;0.00;;;11.30;99.90;;;;;;5034300;28;20209;-66
2022/09/27 09:54:35;;;;;;;0.00;0.00;;;11.40;99.90;;;;;;5033595;28;20275;-66
2022/09/27 09:57:11;;;;;;;0.00;0.00;;;11.40;99.90;;;;;;5033659;28;20297;-66
2022/09/27 09:59:46;;;;;;;0.35;0.22;;;11.50;99.90;;;;;;5033466;28;20170;-65
2022/09/27 10:02:25;;;;;;;0.03;0.03;;;11.50;99.90;;;;;;5033305;28;20178;-66
2022/09/27 10:04:50;;;;;;;0.00;0.00;;;11.60;99.90;;;;;;5033258;28;20194;-66
2022/09/27 10:07:22;;;;;;;0.00;0.00;;;11.60;99.90;;;;;;5032997;28;20489;-66
2022/09/27 10:09:48;;;;;;;0.00;0.00;;;11.60;99.90;;;;;;5033359;28;20304;-66
2022/09/27 10:12:14;;;;;;;0.00;0.00;;;11.50;99.90;;;;;;5033237;28;20197;-66
2022/09/27 10:14:41;;;;;;;0.00;0.00;;;11.50;99.90;;;;;;5033202;28;20178;-66
2022/09/27 10:17:13;;;;;;;0.00;0.00;;;11.40;99.90;;;;;;5033104;28;20182;-65
2022/09/27 10:19:40;;;;;;;0.03;0.03;;;11.50;99.90;;;;;;5032999;28;20174;-66
2022/09/27 10:22:17;;;;;;;0.00;0.00;;;11.50;99.90;;;;;;5033133;28;20170;-66
2022/09/27 10:24:55;;;;;;;0.00;0.00;;;11.50;99.90;;;;;;5033134;28;20186;-65
2022/09/27 10:27:22;;;;;;;0.00;0.00;;;11.50;99.90;;;;;;5032847;28;20232;-65
2022/09/27 10:29:56;;;;;;;0.00;0.00;;;11.40;99.90;;;;;;5032778;28;20699;-66
2022/09/27 10:32:26;;;;;;;0.00;0.00;;;11.10;99.90;;;;;;5032870;28;20225;-65
2022/09/27 10:34:52;;;;;;;0.00;0.00;;;10.90;99.90;;;;;;5032865;28;20166;-65
2022/09/27 10:37:21;;;;;;;0.00;0.00;;;10.70;99.90;;;;;;5032557;28;20229;-65
2022/09/27 10:39:49;;;;;;;0.00;0.00;;;10.60;99.90;;;;;;5032572;28;20217;-66
2022/09/27 10:42:33;;;;;;;0.00;0.00;;;10.70;99.90;;;;;;5032454;28;20377;-66
2022/09/27 10:45:19;;;;;;;0.00;0.00;;;10.80;99.90;;;;;;5032524;28;20645;-66
2022/09/27 10:47:45;;;;;;;0.10;0.10;;;10.90;99.90;;;;;;5031867;28;20236;-66
2022/09/27 10:50:19;;;;;;;0.00;0.00;;;11.10;99.90;;;;;;5032450;28;20209;-67
2022/09/27 10:52:45;;;;;;;0.00;0.00;;;11.30;99.90;;;;;;5032664;28;20181;-66
2022/09/27 10:55:22;;;;;;;0.00;0.00;;;11.40;99.90;;;;;;5032452;28;20174;-67
2022/09/27 10:57:51;;;;;;;0.00;0.00;;;11.60;99.90;;;;;;5032529;28;20185;-67
2022/09/27 11:00:28;;;;;;;0.00;0.00;;;11.70;99.90;;;;;;5032293;28;20178;-67
2022/09/27 11:03:04;;;;;;;0.10;0.10;;;11.80;99.90;;;;;;5032530;28;20768;-67
2022/09/27 11:05:33;;;;;;;0.00;0.00;;;11.80;99.90;;;;;;5032353;28;20224;-67
2022/09/27 11:08:02;;;;;;;0.00;0.00;;;11.80;99.90;;;;;;5032218;28;20564;-67
2022/09/27 11:10:34;;;;;;;0.00;0.00;;;11.90;99.90;;;;;;5032358;28;20217;-67
2022/09/27 11:13:18;;;;;;;0.00;0.00;;;12.00;99.90;;;;;;5032379;28;20201;-67
2022/09/27 11:16:27;;;;;;;0.00;0.00;;;11.90;99.90;;;;;;5032693;28;20181;-67
2022/09/27 11:19:17;;;;;;;0.00;0.00;;;11.90;99.90;;;;;;5031031;28;20273;-66
2022/09/27 11:21:56;;;;;;;0.00;0.00;;;11.90;99.90;;;;;;5031173;28;20178;-66
2022/09/27 11:24:31;;;;;;;0.03;0.03;;;11.80;99.90;;;;;;5032268;28;20706;-65
2022/09/27 11:27:17;;;;;;;0.00;0.00;;;11.60;99.90;;;;;;5033207;28;20304;-68
2022/09/27 11:30:01;;;;;;;0.00;0.00;;;11.30;99.90;;;;;;5032341;28;20251;-68
2022/09/27 11:32:42;;;;;;;0.03;0.03;;;11.00;99.90;;;;;;5031943;28;20190;-65
2022/09/27 11:35:20;;;;;;;0.03;0.03;;;10.90;99.90;;;;;;5032415;28;20173;-67
2022/09/27 11:38:09;;;;;;;0.00;0.00;;;10.90;99.90;;;;;;5032196;28;20186;-67
2022/09/27 11:40:50;;;;;;;0.00;0.00;;;10.90;99.90;;;;;;5031704;28;20273;-66
2022/09/27 11:43:55;;;;;;;0.00;0.00;;;10.90;99.90;;;;;;5031816;28;20170;-66
2022/09/27 11:46:31;;;;;;;0.00;0.00;;;10.90;99.90;;;;;;5031731;28;20649;-67
2022/09/27 11:49:22;;;;;;;0.00;0.00;;;11.00;99.90;;;;;;5034305;28;20648;-67
2022/09/27 11:52:16;;;;;;;0.00;0.00;;;11.00;99.90;;;;;;5032754;28;20209;-67
2022/09/27 11:55:02;;;;;;;0.00;0.00;;;10.90;99.90;;;;;;5032237;28;20217;-68
2022/09/27 11:57:40;;;;;;;0.00;0.00;;;10.90;99.90;;;;;;5032143;28;20178;-67
2022/09/27 12:00:25;;;;;;;0.00;0.00;;;10.70;99.90;;;;;;5032055;28;20268;-66
2022/09/27 12:02:59;;;;;;;0.00;0.00;;;10.60;99.90;;;;;;5031868;28;20576;-68
2022/09/27 12:05:46;;;;;;;0.00;0.00;;;10.60;99.90;;;;;;5031943;28;20208;-66
2022/09/27 12:08:23;;;;;;;0.00;0.00;;;10.60;99.90;;;;;;5031700;28;20170;-65
2022/09/27 12:10:53;;;;;;;0.00;0.00;;;10.50;99.90;;;;;;5031681;28;20221;-66
2022/09/27 12:13:30;;;;;;;0.03;0.03;;;10.40;99.90;;;;;;5031515;28;20225;-66
2022/09/27 12:15:58;;;;;;;0.00;0.00;;;10.30;99.90;;;;;;5031661;28;20209;-66
2022/09/27 12:18:32;;;;;;;0.00;0.00;;;10.40;99.90;;;;;;5033144;28;20190;-67
2022/09/27 12:21:02;;;;;;;0.00;0.00;;;10.30;99.90;;;;;;5033537;28;20174;-67
2022/09/27 12:23:40;;;;;;;0.00;0.00;;;10.50;99.90;;;;;;5032450;28;20213;-67
2022/09/27 12:26:16;;;;;;;0.00;0.00;;;10.80;99.90;;;;;;5032373;28;20182;-67
2022/09/27 12:29:17;;;;;;;0.00;0.00;;;11.20;99.90;;;;;;5032681;28;20578;-67
2022/09/27 12:32:09;;;;;;;0.00;0.00;;;11.50;99.90;;;;;;5034718;28;20225;-66
2022/09/27 12:34:53;;;;;;;0.00;0.00;;;11.70;99.90;;;;;;5035631;28;20210;-66
2022/09/27 12:37:27;;;;;;;0.00;0.00;;;11.90;99.90;;;;;;5035060;28;20736;-67
2022/09/27 12:39:55;;;;;;;0.00;0.00;;;12.10;99.90;;;;;;5035523;28;20277;-67
2022/09/27 12:42:31;;;;;;;0.52;0.30;;;12.20;99.90;;;;;;5035395;28;20186;-67
2022/09/27 12:44:56;;;;;;;0.00;0.00;;;12.30;99.90;;;;;;5035069;28;20166;-66
2022/09/27 12:47:30;;;;;;;0.00;0.00;;;12.30;99.90;;;;;;5034903;28;20664;-66
2022/09/27 12:50:14;;;;;;;0.00;0.00;;;12.50;99.90;;;;;;5033575;28;20541;-66
2022/09/27 12:52:50;;;;;;;0.00;0.00;;;12.50;99.90;;;;;;5035286;28;20193;-66
2022/09/27 12:55:31;;;;;;;0.00;0.00;;;12.70;99.90;;;;;;5035342;28;20229;-66
2022/09/27 12:58:02;;;;;;;0.00;0.00;;;12.90;99.90;;;;;;5034919;28;20182;-66
2022/09/27 13:01:00;;;;;;;0.00;0.00;;;13.20;99.90;;;;;;5035701;28;20174;-67
2022/09/27 13:03:39;;;;;;;0.00;0.00;;;13.30;99.90;;;;;;5033407;28;20696;-67
2022/09/27 13:06:17;;;;;;;0.00;0.00;;;13.20;99.90;;;;;;5034837;28;20244;-67
2022/09/27 13:09:21;;;;;;;0.00;0.00;;;13.20;99.90;;;;;;5035080;28;20181;-67
2022/09/27 13:12:09;;;;;;;0.00;0.00;;;13.10;99.90;;;;;;5033404;28;20217;-66
2022/09/27 13:14:41;;;;;;;0.00;0.00;;;13.00;99.90;;;;;;5034615;28;20190;-67
2022/09/27 13:17:45;;;;;;;0.08;0.08;;;12.90;99.90;;;;;;5034824;28;20170;-66
2022/09/27 13:20:37;;;;;;;0.00;0.00;;;12.90;99.90;;;;;;5034366;28;20174;-68
2022/09/27 13:23:24;;;;;;;0.00;0.00;;;12.70;99.90;;;;;;5034415;28;20166;-67
2022/09/27 13:26:16;;;;;;;0.00;0.00;;;12.70;99.90;;;;;;5035192;28;20177;-66
2022/09/27 13:28:53;;;;;;;0.00;0.00;;;12.50;99.90;;;;;;5034863;28;20185;-67